sensor_id;sensor_type;location;lat;lon;timestamp;temperature;humidity
43043;DHT22;28667;50.758;6.096;2023-06-10T00:00:42;18.20;98.40
43043;DHT22;28667;50.758;6.096;2023-06-10T00:03:09;18.20;98.40
43043;DHT22;28667;50.758;6.096;2023-06-10T00:05:35;18.10;98.60
43043;DHT22;28667;50.758;6.096;2023-06-10T00:08:04;18.10;98.80
43043;DHT22;28667;50.758;6.096;2023-06-10T00:10:34;18.00;99.00
43043;DHT22;28667;50.758;6.096;2023-06-10T00:13:03;17.90;99.50
43043;DHT22;28667;50.758;6.096;2023-06-10T00:15:30;17.90;99.60
43043;DHT22;28667;50.758;6.096;2023-06-10T00:17:56;17.90;99.80
43043;DHT22;28667;50.758;6.096;2023-06-10T00:20:22;17.80;99.90
43043;DHT22;28667;50.758;6.096;2023-06-10T00:22:51;17.70;99.90
43043;DHT22;28667;50.758;6.096;2023-06-10T00:25:18;17.70;99.90
43043;DHT22;28667;50.758;6.096;2023-06-10T00:27:44;17.70;99.90
43043;DHT22;28667;50.758;6.096;2023-06-10T00:30:10;17.60;99.90
43043;DHT22;28667;50.758;6.096;2023-06-10T00:32:36;17.60;99.90
43043;DHT22;28667;50.758;6.096;2023-06-10T00:35:03;17.60;99.90
43043;DHT22;28667;50.758;6.096;2023-06-10T00:37:30;17.50;99.90
43043;DHT22;28667;50.758;6.096;2023-06-10T00:39:57;17.50;99.90
43043;DHT22;28667;50.758;6.096;2023-06-10T00:42:24;17.40;99.90
43043;DHT22;28667;50.758;6.096;2023-06-10T00:44:51;17.40;99.90
43043;DHT22;28667;50.758;6.096;2023-06-10T00:47:17;17.40;99.90
43043;DHT22;28667;50.758;6.096;2023-06-10T00:49:44;17.30;99.90
43043;DHT22;28667;50.758;6.096;2023-06-10T00:52:11;17.30;99.90
43043;DHT22;28667;50.758;6.096;2023-06-10T00:54:37;17.20;99.90
43043;DHT22;28667;50.758;6.096;2023-06-10T00:57:04;17.20;99.90
43043;DHT22;28667;50.758;6.096;2023-06-10T00:59:31;17.20;99.90
43043;DHT22;28667;50.758;6.096;2023-06-10T01:01:57;17.10;99.90
43043;DHT22;28667;50.758;6.096;2023-06-10T01:04:23;17.10;99.90
43043;DHT22;28667;50.758;6.096;2023-06-10T01:07:24;17.10;99.90
43043;DHT22;28667;50.758;6.096;2023-06-10T01:09:55;17.10;99.90
43043;DHT22;28667;50.758;6.096;2023-06-10T01:12:46;17.00;99.90
43043;DHT22;28667;50.758;6.096;2023-06-10T01:15:16;17.00;99.90
43043;DHT22;28667;50.758;6.096;2023-06-10T01:17:55;16.90;99.90
43043;DHT22;28667;50.758;6.096;2023-06-10T01:20:24;16.90;99.90
43043;DHT22;28667;50.758;6.096;2023-06-10T01:22:49;16.90;99.90
43043;DHT22;28667;50.758;6.096;2023-06-10T01:25:18;16.80;99.90
43043;DHT22;28667;50.758;6.096;2023-06-10T01:27:46;16.80;99.90
43043;DHT22;28667;50.758;6.096;2023-06-10T01:30:16;16.80;99.90
43043;DHT22;28667;50.758;6.096;2023-06-10T01:32:50;16.70;99.90
43043;DHT22;28667;50.758;6.096;2023-06-10T01:35:17;16.70;99.90
43043;DHT22;28667;50.758;6.096;2023-06-10T01:37:45;16.70;99.90
43043;DHT22;28667;50.758;6.096;2023-06-10T01:40:13;16.60;99.90
43043;DHT22;28667;50.758;6.096;2023-06-10T01:42:39;16.60;99.90
43043;DHT22;28667;50.758;6.096;2023-06-10T01:45:05;16.60;99.90
43043;DHT22;28667;50.758;6.096;2023-06-10T01:47:31;16.50;99.90
43043;DHT22;28667;50.758;6.096;2023-06-10T01:49:59;16.50;99.90
43043;DHT22;28667;50.758;6.096;2023-06-10T01:52:25;16.40;99.90
43043;DHT22;28667;50.758;6.096;2023-06-10T01:54:50;16.40;99.90
43043;DHT22;28667;50.758;6.096;2023-06-10T01:57:16;16.30;99.90
43043;DHT22;28667;50.758;6.096;2023-06-10T01:59:42;16.30;99.90
43043;DHT22;28667;50.758;6.096;2023-06-10T02:02:09;16.30;99.90
43043;DHT22;28667;50.758;6.096;2023-06-10T02:04:37;16.20;99.90
43043;DHT22;28667;50.758;6.096;2023-06-10T02:07:03;16.20;99.90
43043;DHT22;28667;50.758;6.096;2023-06-10T02:09:32;16.20;99.90
43043;DHT22;28667;50.758;6.096;2023-06-10T02:12:04;16.10;99.90
43043;DHT22;28667;50.758;6.096;2023-06-10T02:14:31;16.10;99.90
43043;DHT22;28667;50.758;6.096;2023-06-10T02:16:57;16.10;99.90
43043;DHT22;28667;50.758;6.096;2023-06-10T02:19:23;16.00;99.90
43043;DHT22;28667;50.758;6.096;2023-06-10T02:21:50;16.10;99.90
43043;DHT22;28667;50.758;6.096;2023-06-10T02:24:16;16.00;99.90
43043;DHT22;28667;50.758;6.096;2023-06-10T02:26:42;16.00;99.90
43043;DHT22;28667;50.758;6.096;2023-06-10T02:29:07;15.90;99.90
43043;DHT22;28667;50.758;6.096;2023-06-10T02:31:33;15.90;99.90
43043;DHT22;28667;50.758;6.096;2023-06-10T02:34:01;15.90;99.90
43043;DHT22;28667;50.758;6.096;2023-06-10T02:36:29;15.90;99.90
43043;DHT22;28667;50.758;6.096;2023-06-10T02:38:55;15.80;99.90
43043;DHT22;28667;50.758;6.096;2023-06-10T02:41:21;15.80;99.90
43043;DHT22;28667;50.758;6.096;2023-06-10T02:43:49;15.80;99.90
43043;DHT22;28667;50.758;6.096;2023-06-10T02:46:15;15.70;99.90
43043;DHT22;28667;50.758;6.096;2023-06-10T02:48:43;15.70;99.90
43043;DHT22;28667;50.758;6.096;2023-06-10T02:51:15;15.70;99.90
43043;DHT22;28667;50.758;6.096;2023-06-10T02:53:44;15.60;99.90
43043;DHT22;28667;50.758;6.096;2023-06-10T02:56:13;15.60;99.90
43043;DHT22;28667;50.758;6.096;2023-06-10T02:58:39;15.60;99.90
43043;DHT22;28667;50.758;6.096;2023-06-10T03:01:06;15.60;99.90
43043;DHT22;28667;50.758;6.096;2023-06-10T03:03:41;15.60;99.90
43043;DHT22;28667;50.758;6.096;2023-06-10T03:06:10;15.60;99.90
43043;DHT22;28667;50.758;6.096;2023-06-10T03:08:39;15.50;99.90
43043;DHT22;28667;50.758;6.096;2023-06-10T03:11:10;15.50;99.90
43043;DHT22;28667;50.758;6.096;2023-06-10T03:13:38;15.50;99.90
43043;DHT22;28667;50.758;6.096;2023-06-10T03:16:05;15.50;99.90
43043;DHT22;28667;50.758;6.096;2023-06-10T03:18:34;15.50;99.90
43043;DHT22;28667;50.758;6.096;2023-06-10T03:21:00;15.40;99.90
43043;DHT22;28667;50.758;6.096;2023-06-10T03:23:27;15.40;99.90
43043;DHT22;28667;50.758;6.096;2023-06-10T03:25:53;15.40;99.90
43043;DHT22;28667;50.758;6.096;2023-06-10T03:28:20;15.30;99.90
43043;DHT22;28667;50.758;6.096;2023-06-10T03:30:47;15.30;99.90
43043;DHT22;28667;50.758;6.096;2023-06-10T03:33:14;15.30;99.90
43043;DHT22;28667;50.758;6.096;2023-06-10T03:35:41;15.30;99.90
43043;DHT22;28667;50.758;6.096;2023-06-10T03:38:07;15.30;99.90
43043;DHT22;28667;50.758;6.096;2023-06-10T03:40:33;15.30;99.90
43043;DHT22;28667;50.758;6.096;2023-06-10T03:43:00;15.20;99.90
43043;DHT22;28667;50.758;6.096;2023-06-10T03:45:26;15.20;99.90
43043;DHT22;28667;50.758;6.096;2023-06-10T03:47:54;15.30;99.90
43043;DHT22;28667;50.758;6.096;2023-06-10T03:50:24;15.30;99.90
43043;DHT22;28667;50.758;6.096;2023-06-10T03:52:50;15.30;99.90
43043;DHT22;28667;50.758;6.096;2023-06-10T03:55:19;15.20;99.90
43043;DHT22;28667;50.758;6.096;2023-06-10T03:57:48;15.30;99.90
43043;DHT22;28667;50.758;6.096;2023-06-10T04:00:15;15.20;99.90
43043;DHT22;28667;50.758;6.096;2023-06-10T04:02:41;15.30;99.90
43043;DHT22;28667;50.758;6.096;2023-06-10T04:05:12;15.30;99.90
43043;DHT22;28667;50.758;6.096;2023-06-10T04:07:38;15.30;99.90
43043;DHT22;28667;50.758;6.096;2023-06-10T04:10:08;15.30;99.90
43043;DHT22;28667;50.758;6.096;2023-06-10T04:12:35;15.30;99.90
43043;DHT22;28667;50.758;6.096;2023-06-10T04:15:02;15.30;99.90
43043;DHT22;28667;50.758;6.096;2023-06-10T04:17:28;15.40;99.90
43043;DHT22;28667;50.758;6.096;2023-06-10T04:19:55;15.30;99.90
43043;DHT22;28667;50.758;6.096;2023-06-10T04:22:21;15.40;99.90
43043;DHT22;28667;50.758;6.096;2023-06-10T04:24:48;15.40;99.90
43043;DHT22;28667;50.758;6.096;2023-06-10T04:27:14;15.40;99.90
43043;DHT22;28667;50.758;6.096;2023-06-10T04:29:40;15.40;99.90
43043;DHT22;28667;50.758;6.096;2023-06-10T04:32:06;15.50;99.90
43043;DHT22;28667;50.758;6.096;2023-06-10T04:34:36;15.50;99.90
43043;DHT22;28667;50.758;6.096;2023-06-10T04:37:02;15.50;99.90
43043;DHT22;28667;50.758;6.096;2023-06-10T04:39:28;15.60;99.90
43043;DHT22;28667;50.758;6.096;2023-06-10T04:41:55;15.60;99.90
43043;DHT22;28667;50.758;6.096;2023-06-10T04:44:21;15.70;99.90
43043;DHT22;28667;50.758;6.096;2023-06-10T04:46:47;15.70;99.90
43043;DHT22;28667;50.758;6.096;2023-06-10T04:49:13;15.80;99.90
43043;DHT22;28667;50.758;6.096;2023-06-10T04:51:42;15.80;99.90
43043;DHT22;28667;50.758;6.096;2023-06-10T04:54:07;15.90;99.90
43043;DHT22;28667;50.758;6.096;2023-06-10T04:56:33;15.90;99.90
43043;DHT22;28667;50.758;6.096;2023-06-10T04:58:59;16.00;99.90
43043;DHT22;28667;50.758;6.096;2023-06-10T05:01:25;16.00;99.90
43043;DHT22;28667;50.758;6.096;2023-06-10T05:03:52;16.10;99.90
43043;DHT22;28667;50.758;6.096;2023-06-10T05:06:17;16.20;99.90
43043;DHT22;28667;50.758;6.096;2023-06-10T05:08:43;16.20;99.90
43043;DHT22;28667;50.758;6.096;2023-06-10T05:11:09;16.20;99.90
43043;DHT22;28667;50.758;6.096;2023-06-10T05:13:35;16.30;99.90
43043;DHT22;28667;50.758;6.096;2023-06-10T05:16:01;16.40;99.90
43043;DHT22;28667;50.758;6.096;2023-06-10T05:18:27;16.40;99.90
43043;DHT22;28667;50.758;6.096;2023-06-10T05:20:53;16.50;99.90
43043;DHT22;28667;50.758;6.096;2023-06-10T05:23:21;16.60;99.90
43043;DHT22;28667;50.758;6.096;2023-06-10T05:25:47;16.60;99.90
43043;DHT22;28667;50.758;6.096;2023-06-10T05:28:13;16.70;99.90
43043;DHT22;28667;50.758;6.096;2023-06-10T05:30:39;16.70;99.90
43043;DHT22;28667;50.758;6.096;2023-06-10T05:33:05;16.80;99.90
43043;DHT22;28667;50.758;6.096;2023-06-10T05:35:30;16.90;99.90
43043;DHT22;28667;50.758;6.096;2023-06-10T05:37:56;16.90;99.90
43043;DHT22;28667;50.758;6.096;2023-06-10T05:40:22;17.00;99.90
43043;DHT22;28667;50.758;6.096;2023-06-10T05:42:48;17.00;99.90
43043;DHT22;28667;50.758;6.096;2023-06-10T05:45:14;17.10;99.90
43043;DHT22;28667;50.758;6.096;2023-06-10T05:47:40;17.10;99.90
43043;DHT22;28667;50.758;6.096;2023-06-10T05:50:06;17.20;99.90
43043;DHT22;28667;50.758;6.096;2023-06-10T05:52:34;17.30;99.90
43043;DHT22;28667;50.758;6.096;2023-06-10T05:55:00;17.30;99.90
43043;DHT22;28667;50.758;6.096;2023-06-10T05:57:26;17.40;99.90
43043;DHT22;28667;50.758;6.096;2023-06-10T05:59:52;17.50;99.90
43043;DHT22;28667;50.758;6.096;2023-06-10T06:02:18;17.50;99.90
43043;DHT22;28667;50.758;6.096;2023-06-10T06:04:43;17.60;99.90
43043;DHT22;28667;50.758;6.096;2023-06-10T06:07:09;17.60;99.90
43043;DHT22;28667;50.758;6.096;2023-06-10T06:09:35;17.70;99.90
43043;DHT22;28667;50.758;6.096;2023-06-10T06:12:01;17.80;99.90
43043;DHT22;28667;50.758;6.096;2023-06-10T06:14:30;17.90;99.90
43043;DHT22;28667;50.758;6.096;2023-06-10T06:16:55;17.90;99.90
43043;DHT22;28667;50.758;6.096;2023-06-10T06:19:21;18.00;99.90
43043;DHT22;28667;50.758;6.096;2023-06-10T06:21:47;18.10;99.90
43043;DHT22;28667;50.758;6.096;2023-06-10T06:24:13;18.20;99.90
43043;DHT22;28667;50.758;6.096;2023-06-10T06:26:39;18.30;99.90
43043;DHT22;28667;50.758;6.096;2023-06-10T06:29:05;18.40;99.90
43043;DHT22;28667;50.758;6.096;2023-06-10T06:31:31;18.50;99.90
43043;DHT22;28667;50.758;6.096;2023-06-10T06:33:57;18.70;99.90
43043;DHT22;28667;50.758;6.096;2023-06-10T06:36:22;18.80;99.90
43043;DHT22;28667;50.758;6.096;2023-06-10T06:38:48;19.00;99.90
43043;DHT22;28667;50.758;6.096;2023-06-10T06:41:14;19.10;99.90
43043;DHT22;28667;50.758;6.096;2023-06-10T06:43:39;19.20;99.90
43043;DHT22;28667;50.758;6.096;2023-06-10T06:46:24;19.20;99.90
43043;DHT22;28667;50.758;6.096;2023-06-10T06:48:50;19.50;99.90
43043;DHT22;28667;50.758;6.096;2023-06-10T06:51:16;19.70;99.90
43043;DHT22;28667;50.758;6.096;2023-06-10T06:53:41;19.90;99.90
43043;DHT22;28667;50.758;6.096;2023-06-10T06:56:13;20.10;99.90
43043;DHT22;28667;50.758;6.096;2023-06-10T06:58:39;20.30;99.90
43043;DHT22;28667;50.758;6.096;2023-06-10T07:01:04;20.50;99.90
43043;DHT22;28667;50.758;6.096;2023-06-10T07:03:30;20.60;99.90
43043;DHT22;28667;50.758;6.096;2023-06-10T07:05:56;20.80;99.90
43043;DHT22;28667;50.758;6.096;2023-06-10T07:08:22;20.90;99.90
43043;DHT22;28667;50.758;6.096;2023-06-10T07:10:47;21.00;99.90
43043;DHT22;28667;50.758;6.096;2023-06-10T07:13:14;21.20;99.90
43043;DHT22;28667;50.758;6.096;2023-06-10T07:15:40;21.30;99.90
43043;DHT22;28667;50.758;6.096;2023-06-10T07:18:06;21.40;99.90
43043;DHT22;28667;50.758;6.096;2023-06-10T07:20:31;21.50;99.90
43043;DHT22;28667;50.758;6.096;2023-06-10T07:22:57;21.70;99.90
43043;DHT22;28667;50.758;6.096;2023-06-10T07:25:23;21.70;99.90
43043;DHT22;28667;50.758;6.096;2023-06-10T07:27:49;21.80;99.90
43043;DHT22;28667;50.758;6.096;2023-06-10T07:30:15;21.80;99.90
43043;DHT22;28667;50.758;6.096;2023-06-10T07:32:41;21.90;99.90
43043;DHT22;28667;50.758;6.096;2023-06-10T07:35:09;22.00;99.90
43043;DHT22;28667;50.758;6.096;2023-06-10T07:37:36;22.00;99.90
43043;DHT22;28667;50.758;6.096;2023-06-10T07:40:02;22.20;99.70
43043;DHT22;28667;50.758;6.096;2023-06-10T07:42:27;22.20;99.60
43043;DHT22;28667;50.758;6.096;2023-06-10T07:44:53;22.30;99.90
43043;DHT22;28667;50.758;6.096;2023-06-10T07:47:19;22.30;99.90
43043;DHT22;28667;50.758;6.096;2023-06-10T07:49:44;22.40;99.90
43043;DHT22;28667;50.758;6.096;2023-06-10T07:52:10;22.50;99.70
43043;DHT22;28667;50.758;6.096;2023-06-10T07:54:36;22.60;99.40
43043;DHT22;28667;50.758;6.096;2023-06-10T07:57:02;22.70;99.30
43043;DHT22;28667;50.758;6.096;2023-06-10T07:59:28;22.90;99.20
43043;DHT22;28667;50.758;6.096;2023-06-10T08:01:54;22.90;99.00
43043;DHT22;28667;50.758;6.096;2023-06-10T08:04:20;23.00;98.50
43043;DHT22;28667;50.758;6.096;2023-06-10T08:06:45;23.10;98.30
43043;DHT22;28667;50.758;6.096;2023-06-10T08:09:11;23.20;97.60
43043;DHT22;28667;50.758;6.096;2023-06-10T08:11:37;23.30;97.20
43043;DHT22;28667;50.758;6.096;2023-06-10T08:14:03;23.30;97.20
43043;DHT22;28667;50.758;6.096;2023-06-10T08:16:28;23.40;97.30
43043;DHT22;28667;50.758;6.096;2023-06-10T08:18:54;23.40;97.20
43043;DHT22;28667;50.758;6.096;2023-06-10T08:21:20;23.60;97.00
43043;DHT22;28667;50.758;6.096;2023-06-10T08:23:46;23.70;96.40
43043;DHT22;28667;50.758;6.096;2023-06-10T08:26:11;23.70;96.40
43043;DHT22;28667;50.758;6.096;2023-06-10T08:28:37;23.90;96.00
43043;DHT22;28667;50.758;6.096;2023-06-10T08:31:03;23.90;95.40
43043;DHT22;28667;50.758;6.096;2023-06-10T08:33:29;24.00;95.30
43043;DHT22;28667;50.758;6.096;2023-06-10T08:35:54;24.10;95.10
43043;DHT22;28667;50.758;6.096;2023-06-10T08:38:20;24.10;95.20
43043;DHT22;28667;50.758;6.096;2023-06-10T08:40:46;24.20;95.10
43043;DHT22;28667;50.758;6.096;2023-06-10T08:43:59;24.30;95.40
43043;DHT22;28667;50.758;6.096;2023-06-10T08:46:16;24.40;95.10
43043;DHT22;28667;50.758;6.096;2023-06-10T08:48:45;24.60;94.40
43043;DHT22;28667;50.758;6.096;2023-06-10T08:51:14;24.60;94.30
43043;DHT22;28667;50.758;6.096;2023-06-10T08:54:18;24.70;94.40
43043;DHT22;28667;50.758;6.096;2023-06-10T08:56:43;24.80;94.10
43043;DHT22;28667;50.758;6.096;2023-06-10T08:59:09;24.90;93.70
43043;DHT22;28667;50.758;6.096;2023-06-10T09:01:36;25.00;93.40
43043;DHT22;28667;50.758;6.096;2023-06-10T09:04:02;25.20;92.90
43043;DHT22;28667;50.758;6.096;2023-06-10T09:06:29;25.20;92.90
43043;DHT22;28667;50.758;6.096;2023-06-10T09:08:57;25.40;92.70
43043;DHT22;28667;50.758;6.096;2023-06-10T09:11:23;25.50;92.60
43043;DHT22;28667;50.758;6.096;2023-06-10T09:13:48;25.50;92.20
43043;DHT22;28667;50.758;6.096;2023-06-10T09:16:14;25.60;92.10
43043;DHT22;28667;50.758;6.096;2023-06-10T09:18:41;25.60;92.20
43043;DHT22;28667;50.758;6.096;2023-06-10T09:21:07;25.70;92.00
43043;DHT22;28667;50.758;6.096;2023-06-10T09:23:33;25.70;91.40
43043;DHT22;28667;50.758;6.096;2023-06-10T09:25:58;25.90;90.20
43043;DHT22;28667;50.758;6.096;2023-06-10T09:28:25;25.90;90.60
43043;DHT22;28667;50.758;6.096;2023-06-10T09:31:06;26.10;90.10
43043;DHT22;28667;50.758;6.096;2023-06-10T09:33:38;26.20;89.20
43043;DHT22;28667;50.758;6.096;2023-06-10T09:36:07;26.20;88.50
43043;DHT22;28667;50.758;6.096;2023-06-10T09:38:35;26.30;89.20
43043;DHT22;28667;50.758;6.096;2023-06-10T09:41:01;26.40;88.70
43043;DHT22;28667;50.758;6.096;2023-06-10T09:43:44;26.40;88.30
43043;DHT22;28667;50.758;6.096;2023-06-10T09:46:15;26.40;87.50
43043;DHT22;28667;50.758;6.096;2023-06-10T09:48:43;26.50;87.30
43043;DHT22;28667;50.758;6.096;2023-06-10T09:51:10;26.50;86.50
43043;DHT22;28667;50.758;6.096;2023-06-10T09:53:36;26.50;86.60
43043;DHT22;28667;50.758;6.096;2023-06-10T09:56:02;26.50;87.40
43043;DHT22;28667;50.758;6.096;2023-06-10T09:58:38;26.50;86.80
43043;DHT22;28667;50.758;6.096;2023-06-10T10:01:11;26.60;86.40
43043;DHT22;28667;50.758;6.096;2023-06-10T10:03:48;26.80;85.10
43043;DHT22;28667;50.758;6.096;2023-06-10T10:06:15;26.80;85.00
43043;DHT22;28667;50.758;6.096;2023-06-10T10:08:41;26.80;82.80
43043;DHT22;28667;50.758;6.096;2023-06-10T10:11:07;26.90;82.90
43043;DHT22;28667;50.758;6.096;2023-06-10T10:13:34;27.00;83.40
43043;DHT22;28667;50.758;6.096;2023-06-10T10:16:06;27.00;81.90
43043;DHT22;28667;50.758;6.096;2023-06-10T10:18:41;27.10;82.30
43043;DHT22;28667;50.758;6.096;2023-06-10T10:21:12;27.10;81.70
43043;DHT22;28667;50.758;6.096;2023-06-10T10:24:01;27.10;82.10
43043;DHT22;28667;50.758;6.096;2023-06-10T10:26:29;27.20;81.30
43043;DHT22;28667;50.758;6.096;2023-06-10T10:31:50;27.30;79.90
43043;DHT22;28667;50.758;6.096;2023-06-10T10:34:30;27.30;80.30
43043;DHT22;28667;50.758;6.096;2023-06-10T10:37:00;27.30;78.60
43043;DHT22;28667;50.758;6.096;2023-06-10T10:39:26;27.40;79.50
43043;DHT22;28667;50.758;6.096;2023-06-10T10:41:54;27.40;78.80
43043;DHT22;28667;50.758;6.096;2023-06-10T10:44:21;27.40;78.50
43043;DHT22;28667;50.758;6.096;2023-06-10T10:46:50;27.40;78.20
43043;DHT22;28667;50.758;6.096;2023-06-10T10:49:17;27.40;77.60
43043;DHT22;28667;50.758;6.096;2023-06-10T10:51:59;27.50;78.10
43043;DHT22;28667;50.758;6.096;2023-06-10T10:54:33;27.50;78.80
43043;DHT22;28667;50.758;6.096;2023-06-10T11:02:17;27.70;77.70
43043;DHT22;28667;50.758;6.096;2023-06-10T11:04:47;27.70;77.20
43043;DHT22;28667;50.758;6.096;2023-06-10T11:07:14;27.80;78.30
43043;DHT22;28667;50.758;6.096;2023-06-10T11:10:17;27.80;76.00
43043;DHT22;28667;50.758;6.096;2023-06-10T11:15:22;27.80;77.10
43043;DHT22;28667;50.758;6.096;2023-06-10T11:18:11;27.90;76.70
43043;DHT22;28667;50.758;6.096;2023-06-10T11:20:51;27.90;76.40
43043;DHT22;28667;50.758;6.096;2023-06-10T11:23:44;28.00;77.10
43043;DHT22;28667;50.758;6.096;2023-06-10T11:26:43;28.00;75.80
43043;DHT22;28667;50.758;6.096;2023-06-10T11:29:05;27.90;76.60
43043;DHT22;28667;50.758;6.096;2023-06-10T11:31:33;27.90;76.40
43043;DHT22;28667;50.758;6.096;2023-06-10T11:34:01;27.90;76.30
43043;DHT22;28667;50.758;6.096;2023-06-10T11:36:29;28.00;75.40
43043;DHT22;28667;50.758;6.096;2023-06-10T11:39:01;28.00;76.10
43043;DHT22;28667;50.758;6.096;2023-06-10T11:41:29;28.10;75.30
43043;DHT22;28667;50.758;6.096;2023-06-10T11:43:58;28.10;75.70
43043;DHT22;28667;50.758;6.096;2023-06-10T11:46:26;28.20;74.70
43043;DHT22;28667;50.758;6.096;2023-06-10T11:49:00;28.20;72.80
43043;DHT22;28667;50.758;6.096;2023-06-10T11:51:39;28.30;71.00
43043;DHT22;28667;50.758;6.096;2023-06-10T11:54:08;28.40;71.10
43043;DHT22;28667;50.758;6.096;2023-06-10T11:56:34;28.40;71.20
43043;DHT22;28667;50.758;6.096;2023-06-10T11:59:02;28.50;70.90
43043;DHT22;28667;50.758;6.096;2023-06-10T12:01:37;28.40;70.50
43043;DHT22;28667;50.758;6.096;2023-06-10T12:04:10;28.50;71.10
43043;DHT22;28667;50.758;6.096;2023-06-10T12:06:43;28.50;69.50
43043;DHT22;28667;50.758;6.096;2023-06-10T12:09:26;28.60;68.70
43043;DHT22;28667;50.758;6.096;2023-06-10T12:11:57;28.60;69.60
43043;DHT22;28667;50.758;6.096;2023-06-10T12:17:15;28.70;69.70
43043;DHT22;28667;50.758;6.096;2023-06-10T12:19:41;28.70;70.30
43043;DHT22;28667;50.758;6.096;2023-06-10T12:22:06;28.80;69.00
43043;DHT22;28667;50.758;6.096;2023-06-10T12:24:32;28.80;69.20
43043;DHT22;28667;50.758;6.096;2023-06-10T12:26:58;28.90;69.10
43043;DHT22;28667;50.758;6.096;2023-06-10T12:29:24;29.00;69.40
43043;DHT22;28667;50.758;6.096;2023-06-10T12:32:02;29.00;69.20
43043;DHT22;28667;50.758;6.096;2023-06-10T12:36:55;29.20;67.00
43043;DHT22;28667;50.758;6.096;2023-06-10T12:39:24;29.10;66.50
43043;DHT22;28667;50.758;6.096;2023-06-10T12:41:51;29.20;66.80
43043;DHT22;28667;50.758;6.096;2023-06-10T12:44:17;29.30;67.00
43043;DHT22;28667;50.758;6.096;2023-06-10T12:46:42;29.30;65.20
43043;DHT22;28667;50.758;6.096;2023-06-10T12:49:18;29.40;65.20
43043;DHT22;28667;50.758;6.096;2023-06-10T12:51:44;29.40;65.40
43043;DHT22;28667;50.758;6.096;2023-06-10T12:54:10;29.40;65.70
43043;DHT22;28667;50.758;6.096;2023-06-10T12:56:35;29.50;65.90
43043;DHT22;28667;50.758;6.096;2023-06-10T12:59:02;29.60;64.30
43043;DHT22;28667;50.758;6.096;2023-06-10T13:01:28;29.70;65.80
43043;DHT22;28667;50.758;6.096;2023-06-10T13:03:54;29.70;66.00
43043;DHT22;28667;50.758;6.096;2023-06-10T13:06:19;29.70;66.10
43043;DHT22;28667;50.758;6.096;2023-06-10T13:08:45;29.60;66.10
43043;DHT22;28667;50.758;6.096;2023-06-10T13:11:12;29.60;65.70
43043;DHT22;28667;50.758;6.096;2023-06-10T13:13:38;29.60;65.30
43043;DHT22;28667;50.758;6.096;2023-06-10T13:16:04;29.50;64.70
43043;DHT22;28667;50.758;6.096;2023-06-10T13:18:30;29.60;65.20
43043;DHT22;28667;50.758;6.096;2023-06-10T13:21:03;29.70;65.60
43043;DHT22;28667;50.758;6.096;2023-06-10T13:23:29;29.70;65.70
43043;DHT22;28667;50.758;6.096;2023-06-10T13:25:55;29.80;65.60
43043;DHT22;28667;50.758;6.096;2023-06-10T13:28:21;29.90;65.70
43043;DHT22;28667;50.758;6.096;2023-06-10T13:30:46;29.90;64.70
43043;DHT22;28667;50.758;6.096;2023-06-10T13:33:12;30.00;65.00
43043;DHT22;28667;50.758;6.096;2023-06-10T13:35:38;30.00;64.70
43043;DHT22;28667;50.758;6.096;2023-06-10T13:38:03;30.00;64.70
43043;DHT22;28667;50.758;6.096;2023-06-10T13:40:29;30.10;64.50
43043;DHT22;28667;50.758;6.096;2023-06-10T13:42:55;30.20;63.00
43043;DHT22;28667;50.758;6.096;2023-06-10T13:45:21;30.20;63.10
43043;DHT22;28667;50.758;6.096;2023-06-10T13:47:47;30.30;62.70
43043;DHT22;28667;50.758;6.096;2023-06-10T13:50:14;30.30;62.00
43043;DHT22;28667;50.758;6.096;2023-06-10T13:52:40;30.40;62.90
43043;DHT22;28667;50.758;6.096;2023-06-10T13:55:05;30.50;63.50
43043;DHT22;28667;50.758;6.096;2023-06-10T13:57:31;30.40;63.30
43043;DHT22;28667;50.758;6.096;2023-06-10T13:59:57;30.20;63.30
43043;DHT22;28667;50.758;6.096;2023-06-10T14:02:23;30.00;63.10
43043;DHT22;28667;50.758;6.096;2023-06-10T14:04:48;29.80;62.40
43043;DHT22;28667;50.758;6.096;2023-06-10T14:07:14;29.70;63.00
43043;DHT22;28667;50.758;6.096;2023-06-10T14:09:41;29.50;62.90
43043;DHT22;28667;50.758;6.096;2023-06-10T14:12:07;29.40;62.90
43043;DHT22;28667;50.758;6.096;2023-06-10T14:14:32;29.30;62.90
43043;DHT22;28667;50.758;6.096;2023-06-10T14:16:59;29.30;63.30
43043;DHT22;28667;50.758;6.096;2023-06-10T14:19:24;29.30;62.80
43043;DHT22;28667;50.758;6.096;2023-06-10T14:21:50;29.50;63.30
43043;DHT22;28667;50.758;6.096;2023-06-10T14:24:18;29.70;62.30
43043;DHT22;28667;50.758;6.096;2023-06-10T14:26:44;29.90;61.30
43043;DHT22;28667;50.758;6.096;2023-06-10T14:29:09;30.00;60.50
43043;DHT22;28667;50.758;6.096;2023-06-10T14:31:35;30.20;60.10
43043;DHT22;28667;50.758;6.096;2023-06-10T14:34:01;30.40;59.10
43043;DHT22;28667;50.758;6.096;2023-06-10T14:36:26;30.60;59.80
43043;DHT22;28667;50.758;6.096;2023-06-10T14:38:52;30.70;59.20
43043;DHT22;28667;50.758;6.096;2023-06-10T14:41:19;30.80;57.80
43043;DHT22;28667;50.758;6.096;2023-06-10T14:43:45;30.90;58.30
43043;DHT22;28667;50.758;6.096;2023-06-10T14:46:10;31.00;57.70
43043;DHT22;28667;50.758;6.096;2023-06-10T14:48:36;31.00;58.10
43043;DHT22;28667;50.758;6.096;2023-06-10T14:51:02;31.20;57.40
43043;DHT22;28667;50.758;6.096;2023-06-10T14:53:29;31.30;56.70
43043;DHT22;28667;50.758;6.096;2023-06-10T14:55:54;31.40;56.80
43043;DHT22;28667;50.758;6.096;2023-06-10T14:58:20;31.40;56.20
43043;DHT22;28667;50.758;6.096;2023-06-10T15:00:46;31.40;56.20
43043;DHT22;28667;50.758;6.096;2023-06-10T15:03:11;31.50;56.50
43043;DHT22;28667;50.758;6.096;2023-06-10T15:05:37;31.60;56.40
43043;DHT22;28667;50.758;6.096;2023-06-10T15:08:04;31.70;56.50
43043;DHT22;28667;50.758;6.096;2023-06-10T15:10:30;31.80;55.60
43043;DHT22;28667;50.758;6.096;2023-06-10T15:12:56;31.80;55.40
43043;DHT22;28667;50.758;6.096;2023-06-10T15:15:23;31.80;54.60
43043;DHT22;28667;50.758;6.096;2023-06-10T15:17:49;31.70;54.70
43043;DHT22;28667;50.758;6.096;2023-06-10T15:20:14;31.60;55.10
43043;DHT22;28667;50.758;6.096;2023-06-10T15:22:40;31.60;55.20
43043;DHT22;28667;50.758;6.096;2023-06-10T15:25:06;31.60;54.50
43043;DHT22;28667;50.758;6.096;2023-06-10T15:27:32;31.60;54.90
43043;DHT22;28667;50.758;6.096;2023-06-10T15:29:58;31.70;55.10
43043;DHT22;28667;50.758;6.096;2023-06-10T15:32:23;31.80;55.10
43043;DHT22;28667;50.758;6.096;2023-06-10T15:34:49;31.90;54.80
43043;DHT22;28667;50.758;6.096;2023-06-10T15:37:18;31.90;55.20
43043;DHT22;28667;50.758;6.096;2023-06-10T15:39:44;31.90;55.20
43043;DHT22;28667;50.758;6.096;2023-06-10T15:42:10;31.90;54.70
43043;DHT22;28667;50.758;6.096;2023-06-10T15:44:36;31.80;54.90
43043;DHT22;28667;50.758;6.096;2023-06-10T15:47:01;31.70;54.10
43043;DHT22;28667;50.758;6.096;2023-06-10T15:49:27;31.60;55.00